Time;durP1;ratioP1;P1;durP2;ratioP2;P2;SDS_P1;SDS_P2;PMS_P1;PMS_P2;Temp;Humidity;BMP_temperature;BMP_pressure;BME280_temperature;BME280_humidity;BME280_pressure;Samples;Min_cycle;Max_cycle;Signal;HPM_P1;HPM_P2
2022/09/16 00:01:17;;;;;;;4.73;0.83;;;16.80;99.90;;;;;;5052548;28;20249;-33
2022/09/16 00:03:46;;;;;;;4.33;1.20;;;16.80;99.90;;;;;;5049565;28;20188;-33
2022/09/16 00:06:27;;;;;;;3.90;0.90;;;16.70;99.90;;;;;;5056017;28;20216;-33
2022/09/16 00:08:57;;;;;;;3.90;1.10;;;16.70;99.90;;;;;;5063777;28;20207;-33
2022/09/16 00:11:24;;;;;;;3.30;1.00;;;16.70;99.90;;;;;;5048561;28;20231;-33
2022/09/16 00:13:51;;;;;;;2.43;0.97;;;16.70;99.90;;;;;;5055039;28;20212;-33
2022/09/16 00:16:22;;;;;;;3.60;0.80;;;16.70;99.90;;;;;;5057566;28;20242;-32
2022/09/16 00:18:57;;;;;;;4.53;1.13;;;16.70;99.90;;;;;;5060682;28;20629;-34
2022/09/16 00:21:30;;;;;;;4.30;1.13;;;16.60;99.90;;;;;;5052428;28;20211;-34
2022/09/16 00:23:57;;;;;;;8.10;1.30;;;16.60;99.90;;;;;;5052010;28;20594;-33
2022/09/16 00:26:28;;;;;;;2.63;0.93;;;16.60;99.90;;;;;;5048839;28;20739;-33
2022/09/16 00:29:00;;;;;;;3.03;1.20;;;16.50;99.90;;;;;;5050360;28;20225;-33
2022/09/16 00:31:27;;;;;;;4.30;1.00;;;16.50;99.90;;;;;;5056773;28;20195;-33
2022/09/16 00:33:57;;;;;;;3.97;1.10;;;16.50;99.90;;;;;;5058804;28;20731;-33
2022/09/16 00:36:24;;;;;;;5.63;1.13;;;16.40;99.90;;;;;;5055767;28;20220;-33
2022/09/16 00:38:56;;;;;;;4.87;1.23;;;16.40;99.90;;;;;;5057713;28;20640;-33
2022/09/16 00:41:26;;;;;;;3.57;1.30;;;16.40;99.90;;;;;;5057294;28;20219;-33
2022/09/16 00:44:04;;;;;;;3.40;1.03;;;16.30;99.90;;;;;;5057696;28;20211;-33
2022/09/16 00:46:39;;;;;;;3.73;1.00;;;16.30;99.90;;;;;;5049038;28;20203;-33
2022/09/16 00:49:27;;;;;;;2.67;1.10;;;16.30;99.90;;;;;;5048091;28;20660;-33
2022/09/16 00:52:04;;;;;;;3.03;1.00;;;16.20;99.90;;;;;;5048263;28;20207;-33
2022/09/16 00:54:41;;;;;;;2.63;1.07;;;16.20;99.90;;;;;;5055699;28;20207;-33
2022/09/16 00:57:13;;;;;;;4.50;1.00;;;16.20;99.90;;;;;;5047598;28;20210;-33
2022/09/16 00:59:46;;;;;;;5.10;1.00;;;16.20;99.90;;;;;;5052854;28;20235;-34
2022/09/16 01:02:17;;;;;;;1.27;0.80;;;16.10;99.90;;;;;;5047634;28;20688;-34
2022/09/16 01:04:54;;;;;;;3.77;0.90;;;16.10;99.90;;;;;;5045593;28;20215;-34
2022/09/16 01:07:34;;;;;;;5.00;1.10;;;16.10;99.90;;;;;;5052916;28;20212;-33
2022/09/16 01:10:05;;;;;;;2.73;0.90;;;16.10;99.90;;;;;;5059877;28;20229;-33
2022/09/16 01:12:33;;;;;;;4.10;1.10;;;16.00;99.90;;;;;;5047489;28;20219;-33
2022/09/16 01:15:07;;;;;;;3.27;1.00;;;16.00;99.90;;;;;;5055441;28;20207;-33
2022/09/16 01:17:43;;;;;;;4.43;1.17;;;16.00;99.90;;;;;;5057335;28;20220;-33
2022/09/16 01:20:57;;;;;;;2.87;0.67;;;16.00;99.90;;;;;;5035793;28;20396;-33
2022/09/16 01:24:02;;;;;;;3.13;0.90;;;15.90;99.90;;;;;;5052569;28;20227;-33
2022/09/16 01:26:58;;;;;;;4.70;0.97;;;15.90;99.90;;;;;;5049258;28;20223;-35
2022/09/16 01:30:01;;;;;;;4.33;0.80;;;15.80;99.90;;;;;;5049875;28;20201;-35
2022/09/16 01:32:41;;;;;;;6.37;1.30;;;15.80;99.90;;;;;;5047030;28;20208;-35
2022/09/16 01:35:16;;;;;;;3.13;0.90;;;15.80;99.90;;;;;;5057220;28;20223;-35
2022/09/16 01:38:16;;;;;;;2.40;1.00;;;15.70;99.90;;;;;;5058022;28;20214;-35
2022/09/16 01:41:06;;;;;;;4.67;0.90;;;15.80;99.90;;;;;;5050575;28;20273;-34
2022/09/16 01:43:58;;;;;;;2.87;0.90;;;15.70;99.90;;;;;;5055285;28;20219;-35
2022/09/16 01:46:39;;;;;;;2.83;0.90;;;15.70;99.90;;;;;;5061409;28;20196;-33
2022/09/16 01:49:20;;;;;;;3.43;1.20;;;15.70;99.90;;;;;;5049077;28;20208;-35
2022/09/16 01:52:22;;;;;;;5.50;1.10;;;15.60;99.90;;;;;;5046633;28;20219;-33
2022/09/16 01:55:01;;;;;;;2.40;1.17;;;15.60;99.90;;;;;;5046901;28;20678;-35
2022/09/16 01:57:36;;;;;;;2.77;1.27;;;15.60;99.90;;;;;;5060532;28;20206;-32
2022/09/16 02:00:10;;;;;;;2.97;1.00;;;15.60;99.90;;;;;;5060988;28;20297;-35
2022/09/16 02:03:06;;;;;;;3.20;1.10;;;15.60;99.90;;;;;;5062389;28;20640;-35
2022/09/16 02:05:39;;;;;;;5.27;1.20;;;15.60;99.90;;;;;;5033448;28;20199;-33
2022/09/16 02:08:16;;;;;;;5.13;1.37;;;15.50;99.90;;;;;;5056360;28;20234;-33
2022/09/16 02:10:57;;;;;;;3.67;1.33;;;15.50;99.90;;;;;;5068138;28;20207;-32
2022/09/16 02:13:29;;;;;;;2.93;1.10;;;15.50;99.90;;;;;;5061266;28;20690;-33
2022/09/16 02:16:07;;;;;;;4.70;1.50;;;15.50;99.90;;;;;;5059402;28;20374;-33
2022/09/16 02:18:40;;;;;;;2.80;1.10;;;15.50;99.90;;;;;;5068650;28;20216;-33
2022/09/16 02:21:16;;;;;;;3.40;1.33;;;15.50;99.90;;;;;;5059464;28;20202;-33
2022/09/16 02:23:51;;;;;;;5.23;1.00;;;15.50;99.90;;;;;;5061587;28;20196;-33
2022/09/16 02:26:26;;;;;;;5.27;1.30;;;15.50;99.90;;;;;;5050388;28;20212;-33
2022/09/16 02:28:54;;;;;;;3.60;1.07;;;15.50;99.90;;;;;;5062867;28;20211;-33
2022/09/16 02:31:29;;;;;;;2.60;0.90;;;15.60;99.90;;;;;;5051738;28;20722;-33
2022/09/16 02:34:12;;;;;;;5.10;0.90;;;15.50;99.90;;;;;;5058126;28;20215;-33
2022/09/16 02:36:44;;;;;;;1.77;0.80;;;15.50;99.90;;;;;;5054499;28;20203;-33
2022/09/16 02:39:16;;;;;;;3.60;1.10;;;15.50;99.90;;;;;;5048542;28;20227;-33
2022/09/16 02:41:46;;;;;;;3.97;1.20;;;15.60;99.90;;;;;;5049098;28;20220;-33
2022/09/16 02:44:15;;;;;;;2.73;1.17;;;15.60;99.90;;;;;;5052471;28;20562;-33
2022/09/16 02:46:42;;;;;;;5.30;0.97;;;15.60;99.90;;;;;;5048478;28;20196;-33
2022/09/16 02:49:25;;;;;;;3.30;0.80;;;15.70;99.90;;;;;;5049457;28;20207;-34
2022/09/16 02:52:09;;;;;;;3.13;1.00;;;15.70;99.90;;;;;;5049388;28;20682;-33
2022/09/16 02:54:57;;;;;;;3.17;1.07;;;15.70;99.90;;;;;;5056856;28;20212;-33
2022/09/16 02:57:27;;;;;;;3.97;1.27;;;15.70;99.90;;;;;;5051582;28;20273;-33
2022/09/16 02:59:54;;;;;;;3.57;1.20;;;15.70;99.90;;;;;;5065302;28;20235;-33
2022/09/16 03:02:22;;;;;;;4.33;1.07;;;15.70;99.90;;;;;;5056534;28;20233;-33
2022/09/16 03:04:54;;;;;;;4.77;1.27;;;15.70;99.90;;;;;;5067096;28;20204;-33
2022/09/16 03:07:23;;;;;;;3.10;1.17;;;15.70;99.90;;;;;;5056063;28;20209;-33
2022/09/16 03:09:51;;;;;;;3.60;0.87;;;15.70;99.90;;;;;;5054422;28;20685;-33
2022/09/16 03:12:41;;;;;;;2.13;0.90;;;15.60;99.90;;;;;;5053851;28;20208;-33
2022/09/16 03:15:22;;;;;;;5.23;0.97;;;15.70;99.90;;;;;;5055983;28;20694;-33
2022/09/16 03:18:01;;;;;;;4.10;0.80;;;15.70;99.90;;;;;;5067280;28;20228;-33
2022/09/16 03:20:56;;;;;;;3.20;0.90;;;15.60;99.90;;;;;;5051859;28;20334;-33
2022/09/16 03:23:43;;;;;;;3.07;0.80;;;15.60;99.90;;;;;;5058955;28;20214;-34
2022/09/16 03:26:32;;;;;;;3.00;0.90;;;15.60;99.90;;;;;;5053862;28;20526;-33
2022/09/16 03:29:54;;;;;;;3.30;0.80;;;15.60;99.90;;;;;;5052273;28;20236;-33
2022/09/16 03:32:29;;;;;;;2.60;0.90;;;15.60;99.90;;;;;;5055138;28;20207;-33
2022/09/16 03:35:25;;;;;;;3.17;1.30;;;15.60;99.90;;;;;;5048303;28;20207;-33
2022/09/16 03:37:59;;;;;;;8.03;1.40;;;15.60;99.90;;;;;;5054470;28;20634;-35
2022/09/16 03:40:31;;;;;;;3.17;0.70;;;15.60;99.90;;;;;;5047121;28;20716;-35
2022/09/16 03:43:08;;;;;;;2.20;0.63;;;15.60;99.90;;;;;;5054784;28;20644;-35
2022/09/16 03:45:39;;;;;;;4.20;1.00;;;15.60;99.90;;;;;;5048020;28;20752;-35
2022/09/16 03:48:06;;;;;;;2.50;0.80;;;15.60;99.90;;;;;;5045360;28;20608;-35
2022/09/16 03:50:35;;;;;;;3.07;0.77;;;15.60;99.90;;;;;;5048518;28;20208;-33
2022/09/16 03:53:07;;;;;;;3.87;0.87;;;15.60;99.90;;;;;;5056621;28;20301;-33
2022/09/16 03:55:38;;;;;;;4.70;0.90;;;15.60;99.90;;;;;;5062616;28;20298;-33
2022/09/16 03:58:05;;;;;;;5.17;1.00;;;15.60;99.90;;;;;;5049179;28;20779;-33
2022/09/16 04:00:32;;;;;;;3.63;0.80;;;15.50;99.90;;;;;;5052738;28;20773;-33
2022/09/16 04:03:00;;;;;;;2.57;0.90;;;15.50;99.90;;;;;;5051013;28;20210;-33
2022/09/16 04:05:29;;;;;;;3.10;0.73;;;15.50;99.90;;;;;;5052438;28;20799;-33
2022/09/16 04:07:57;;;;;;;3.93;0.90;;;15.50;99.90;;;;;;5047423;28;20251;-34
2022/09/16 04:10:26;;;;;;;4.10;0.80;;;15.50;99.90;;;;;;5048170;28;20220;-33
2022/09/16 04:12:57;;;;;;;5.73;0.90;;;15.50;99.90;;;;;;5046742;28;20208;-34
2022/09/16 04:15:24;;;;;;;7.07;1.10;;;15.50;99.90;;;;;;5054142;28;20746;-33
2022/09/16 04:17:55;;;;;;;3.13;0.87;;;15.50;99.90;;;;;;5048006;28;20232;-33
2022/09/16 04:20:22;;;;;;;6.43;0.90;;;15.50;99.90;;;;;;5045611;28;20220;-33
2022/09/16 04:22:52;;;;;;;2.67;0.80;;;15.50;99.90;;;;;;5050923;28;20585;-33
2022/09/16 04:25:19;;;;;;;2.70;0.77;;;15.50;99.90;;;;;;5049186;28;20207;-33
2022/09/16 04:27:51;;;;;;;5.03;0.90;;;15.50;99.90;;;;;;5053655;28;20204;-34
2022/09/16 04:30:19;;;;;;;2.87;0.70;;;15.40;99.90;;;;;;5057738;28;20211;-34
2022/09/16 04:32:52;;;;;;;3.67;0.77;;;15.50;99.90;;;;;;5050153;28;20284;-33
2022/09/16 04:35:23;;;;;;;3.80;1.10;;;15.50;99.90;;;;;;5059944;28;20215;-34
2022/09/16 04:37:53;;;;;;;4.60;0.80;;;15.50;99.90;;;;;;5053499;28;20199;-33
2022/09/16 04:40:23;;;;;;;4.33;0.70;;;15.50;99.90;;;;;;5064479;28;20227;-33
2022/09/16 04:42:51;;;;;;;1.50;0.50;;;15.40;99.90;;;;;;5056439;28;20209;-34
2022/09/16 04:45:20;;;;;;;3.10;0.90;;;15.40;99.90;;;;;;5050745;28;20674;-34
2022/09/16 04:47:48;;;;;;;3.77;1.00;;;15.40;99.90;;;;;;5054678;28;20216;-34
2022/09/16 04:50:15;;;;;;;5.53;0.83;;;15.40;99.90;;;;;;5049265;28;20195;-34
2022/09/16 04:52:46;;;;;;;3.37;0.70;;;15.40;99.90;;;;;;5056694;28;20258;-34
2022/09/16 04:55:14;;;;;;;2.73;0.67;;;15.40;99.90;;;;;;5046718;28;20227;-44
2022/09/16 04:57:41;;;;;;;5.57;0.80;;;15.40;99.90;;;;;;5053160;28;20212;-34
2022/09/16 05:00:11;;;;;;;3.77;0.63;;;15.40;99.90;;;;;;5053333;28;20579;-33
2022/09/16 05:02:47;;;;;;;2.40;0.80;;;15.40;99.90;;;;;;5048499;28;20211;-33
2022/09/16 05:05:17;;;;;;;5.53;0.90;;;15.40;99.90;;;;;;5056553;28;20597;-34
2022/09/16 05:07:46;;;;;;;1.77;0.50;;;15.40;99.90;;;;;;5051639;28;20196;-35
2022/09/16 05:10:16;;;;;;;3.83;0.80;;;15.30;99.90;;;;;;5050640;28;20203;-36
2022/09/16 05:12:43;;;;;;;1.63;0.40;;;15.30;99.90;;;;;;5048815;28;20307;-35
2022/09/16 05:15:18;;;;;;;6.70;0.80;;;15.30;99.90;;;;;;5048618;28;20207;-37
2022/09/16 05:17:45;;;;;;;2.80;0.80;;;15.30;99.90;;;;;;5051075;28;20299;-36
2022/09/16 05:20:22;;;;;;;1.03;0.40;;;15.30;99.90;;;;;;5050613;28;20231;-36
2022/09/16 05:22:50;;;;;;;3.73;0.70;;;15.30;99.90;;;;;;5056560;28;20218;-36
2022/09/16 05:25:20;;;;;;;1.67;0.40;;;15.30;99.90;;;;;;5054947;28;20203;-37
2022/09/16 05:27:51;;;;;;;3.07;0.70;;;15.30;99.90;;;;;;5054948;28;20204;-37
2022/09/16 05:30:23;;;;;;;2.23;0.60;;;15.30;99.90;;;;;;5051985;28;20216;-37
2022/09/16 05:32:55;;;;;;;1.30;0.50;;;15.30;99.90;;;;;;5061024;28;20204;-37
2022/09/16 05:35:24;;;;;;;3.00;0.77;;;15.30;99.90;;;;;;5050888;28;20203;-37
2022/09/16 05:37:55;;;;;;;3.13;0.73;;;15.30;99.90;;;;;;5058041;28;20208;-37
2022/09/16 05:40:29;;;;;;;2.27;0.77;;;15.30;99.90;;;;;;5057935;28;20750;-37
2022/09/16 05:42:56;;;;;;;3.30;0.80;;;15.30;99.90;;;;;;5052754;28;20578;-37
2022/09/16 05:45:26;;;;;;;5.07;0.90;;;15.30;99.90;;;;;;5053108;28;20204;-37
2022/09/16 05:47:58;;;;;;;2.53;0.70;;;15.30;99.90;;;;;;5063920;28;20746;-37
2022/09/16 05:50:27;;;;;;;2.50;1.10;;;15.30;99.90;;;;;;5059009;28;20203;-37
2022/09/16 05:52:57;;;;;;;1.53;0.73;;;15.30;99.90;;;;;;5056489;28;20285;-37
2022/09/16 05:55:25;;;;;;;4.47;0.70;;;15.30;99.90;;;;;;5057774;28;20188;-37
2022/09/16 05:57:52;;;;;;;3.03;0.57;;;15.30;99.90;;;;;;5064236;28;20372;-37
2022/09/16 06:00:22;;;;;;;1.97;0.70;;;15.30;99.90;;;;;;5052700;28;20216;-37
2022/09/16 06:02:51;;;;;;;2.30;0.60;;;15.30;99.90;;;;;;5050377;28;20188;-37
2022/09/16 06:05:21;;;;;;;3.07;0.60;;;15.30;99.90;;;;;;5057499;28;20745;-38
2022/09/16 06:07:48;;;;;;;2.70;0.70;;;15.30;99.90;;;;;;5059601;28;20781;-37
2022/09/16 06:10:16;;;;;;;3.07;1.10;;;15.30;99.90;;;;;;5045208;28;20705;-37
2022/09/16 06:12:45;;;;;;;2.83;1.00;;;15.30;99.90;;;;;;5050243;28;20708;-37
2022/09/16 06:15:12;;;;;;;4.10;1.00;;;15.30;99.90;;;;;;5056190;28;20215;-37
2022/09/16 06:17:42;;;;;;;5.53;0.83;;;15.30;99.90;;;;;;5073739;28;20219;-37
2022/09/16 06:20:12;;;;;;;2.27;0.77;;;15.20;99.90;;;;;;5059690;28;20223;-37
2022/09/16 06:22:40;;;;;;;6.10;1.20;;;15.20;99.90;;;;;;5066169;28;20215;-37
2022/09/16 06:25:07;;;;;;;10.60;1.40;;;15.30;99.90;;;;;;5082386;28;20537;-38
2022/09/16 06:27:35;;;;;;;5.07;0.97;;;15.30;99.90;;;;;;5059468;28;20203;-38
2022/09/16 06:30:03;;;;;;;3.57;1.30;;;15.30;99.90;;;;;;5049244;28;20212;-38
2022/09/16 06:32:33;;;;;;;7.87;1.50;;;15.30;99.90;;;;;;5061857;28;20215;-37
2022/09/16 06:35:00;;;;;;;8.07;1.57;;;15.30;99.90;;;;;;5062099;28;20295;-37
2022/09/16 06:37:33;;;;;;;2.30;0.80;;;15.30;99.90;;;;;;5070419;28;20300;-38
2022/09/16 06:40:00;;;;;;;1.23;0.53;;;15.30;99.90;;;;;;5054828;28;20595;-37
2022/09/16 06:42:29;;;;;;;4.90;1.27;;;15.30;99.90;;;;;;5056707;28;20227;-37
2022/09/16 06:44:59;;;;;;;2.43;0.90;;;15.30;99.90;;;;;;5052264;28;20295;-37
2022/09/16 06:47:26;;;;;;;10.80;1.17;;;15.30;99.90;;;;;;5052366;28;20203;-38
2022/09/16 06:49:55;;;;;;;3.20;1.00;;;15.20;99.90;;;;;;5046460;28;20674;-37
2022/09/16 06:52:22;;;;;;;6.90;1.30;;;15.30;99.90;;;;;;5051122;28;20207;-37
2022/09/16 06:54:50;;;;;;;1.60;0.57;;;15.20;99.90;;;;;;5059431;28;20199;-37
2022/09/16 06:57:22;;;;;;;3.73;0.60;;;15.30;99.90;;;;;;5053000;28;20239;-37
2022/09/16 06:59:57;;;;;;;2.20;0.57;;;15.30;99.90;;;;;;5050157;28;20247;-37
2022/09/16 07:02:24;;;;;;;1.63;0.47;;;15.30;99.90;;;;;;5048861;28;20200;-38
2022/09/16 07:04:51;;;;;;;1.70;0.63;;;15.30;99.90;;;;;;5056433;28;20192;-37
2022/09/16 07:07:18;;;;;;;3.90;0.50;;;15.30;99.90;;;;;;5052206;28;20204;-33
2022/09/16 07:09:46;;;;;;;2.50;0.80;;;15.30;99.90;;;;;;5052192;28;20250;-35
2022/09/16 07:12:13;;;;;;;1.97;0.60;;;15.30;99.90;;;;;;5048977;28;20208;-36
2022/09/16 07:14:45;;;;;;;4.20;0.60;;;15.30;99.90;;;;;;5052676;28;20290;-35
2022/09/16 07:17:17;;;;;;;1.67;0.50;;;15.30;99.90;;;;;;5060064;28;20236;-35
2022/09/16 07:19:45;;;;;;;3.07;0.60;;;15.40;99.90;;;;;;5047958;28;20709;-35
2022/09/16 07:22:12;;;;;;;2.00;0.50;;;15.40;99.90;;;;;;5057399;28;20306;-35
2022/09/16 07:24:41;;;;;;;3.17;0.60;;;15.40;99.90;;;;;;5057364;28;20218;-35
2022/09/16 07:27:09;;;;;;;4.57;0.80;;;15.40;99.90;;;;;;5057885;28;20244;-35
2022/09/16 07:29:41;;;;;;;2.73;0.50;;;15.40;99.90;;;;;;5077751;28;20261;-35
2022/09/16 07:32:11;;;;;;;3.00;0.57;;;15.40;99.90;;;;;;5056601;28;20482;-36
2022/09/16 07:34:38;;;;;;;2.00;0.50;;;15.50;99.90;;;;;;5055219;28;20310;-37
2022/09/16 07:37:11;;;;;;;5.77;0.87;;;15.40;99.90;;;;;;5061383;28;20207;-36
2022/09/16 07:39:43;;;;;;;7.93;1.17;;;15.50;99.90;;;;;;5049623;28;20242;-35
2022/09/16 07:42:15;;;;;;;2.17;0.60;;;15.50;99.90;;;;;;5061079;28;20566;-36
2022/09/16 07:44:42;;;;;;;2.10;0.70;;;15.50;99.90;;;;;;5054630;28;20207;-35
2022/09/16 07:47:09;;;;;;;2.37;0.70;;;15.50;99.90;;;;;;5052324;28;20196;-38
2022/09/16 07:49:38;;;;;;;3.00;0.90;;;15.50;99.90;;;;;;5054077;28;20625;-38
2022/09/16 07:52:09;;;;;;;3.60;0.67;;;15.50;99.90;;;;;;5047190;28;20207;-38
2022/09/16 07:54:38;;;;;;;4.97;0.83;;;15.60;99.90;;;;;;5047794;28;20216;-37
2022/09/16 07:57:08;;;;;;;5.13;0.97;;;15.60;99.90;;;;;;5060530;28;20205;-38
2022/09/16 07:59:35;;;;;;;3.33;0.47;;;15.60;99.90;;;;;;5055605;28;20266;-38
2022/09/16 08:02:02;;;;;;;4.70;1.20;;;15.70;99.90;;;;;;5062544;28;20204;-38
2022/09/16 08:04:37;;;;;;;3.10;1.20;;;15.70;99.90;;;;;;5066234;28;20237;-38
2022/09/16 08:07:09;;;;;;;4.33;1.30;;;15.80;99.90;;;;;;5058214;28;20593;-38
2022/09/16 08:09:41;;;;;;;3.10;1.20;;;15.90;99.90;;;;;;5046944;28;20203;-38
2022/09/16 08:12:20;;;;;;;2.10;0.90;;;15.90;99.90;;;;;;5048233;28;20208;-37
2022/09/16 08:14:47;;;;;;;6.27;1.17;;;16.00;99.90;;;;;;5046619;28;21019;-37
2022/09/16 08:17:19;;;;;;;2.77;1.07;;;16.10;99.90;;;;;;5058157;28;20226;-38
2022/09/16 08:19:51;;;;;;;4.53;1.43;;;16.10;99.90;;;;;;5046729;28;20266;-38
2022/09/16 08:22:18;;;;;;;3.73;1.47;;;16.10;99.90;;;;;;5060081;28;20204;-38
2022/09/16 08:24:48;;;;;;;1.83;1.03;;;16.10;99.90;;;;;;5047507;28;20211;-38
2022/09/16 08:27:15;;;;;;;2.40;1.03;;;16.00;99.90;;;;;;5049602;28;20208;-38
2022/09/16 08:29:45;;;;;;;3.77;1.20;;;16.00;99.90;;;;;;5066947;28;20211;-38
2022/09/16 08:32:12;;;;;;;2.50;1.00;;;15.90;99.90;;;;;;5058444;28;20257;-38
2022/09/16 08:34:39;;;;;;;2.83;0.90;;;15.90;99.90;;;;;;5045066;28;20203;-38
2022/09/16 08:37:06;;;;;;;2.63;0.80;;;15.90;99.90;;;;;;5047528;28;20197;-38
2022/09/16 08:39:34;;;;;;;2.13;0.83;;;15.90;99.90;;;;;;5052882;28;20234;-37
2022/09/16 08:42:18;;;;;;;2.83;0.87;;;15.90;99.90;;;;;;5060963;28;20238;-37
2022/09/16 08:45:23;;;;;;;2.60;0.83;;;16.00;99.90;;;;;;5067285;28;20212;-37
2022/09/16 08:48:30;;;;;;;2.53;0.80;;;16.00;99.90;;;;;;5058664;28;20765;-37
2022/09/16 08:51:00;;;;;;;2.53;1.07;;;16.10;99.90;;;;;;5051909;28;20211;-37
2022/09/16 08:53:36;;;;;;;3.50;0.70;;;16.10;99.90;;;;;;5046783;28;20717;-37
2022/09/16 08:56:09;;;;;;;2.43;0.70;;;16.20;99.90;;;;;;5051711;28;20221;-38
2022/09/16 08:58:43;;;;;;;1.70;0.70;;;16.20;99.90;;;;;;5049567;28;20338;-37
2022/09/16 09:01:34;;;;;;;2.20;0.80;;;16.30;99.90;;;;;;5046501;28;20221;-36
2022/09/16 09:04:04;;;;;;;2.00;0.60;;;16.30;99.90;;;;;;5045638;28;20220;-35
2022/09/16 09:06:59;;;;;;;2.07;0.73;;;16.30;99.90;;;;;;5054104;28;20196;-36
2022/09/16 09:10:00;;;;;;;1.53;0.50;;;16.30;99.90;;;;;;5048395;28;20197;-35
2022/09/16 09:12:53;;;;;;;5.00;0.70;;;16.30;99.90;;;;;;5050270;28;20393;-35
2022/09/16 09:15:30;;;;;;;3.47;0.63;;;16.20;99.90;;;;;;5053385;28;21020;-35
2022/09/16 09:18:15;;;;;;;4.17;0.73;;;16.10;99.90;;;;;;5044246;28;20203;-35
2022/09/16 09:21:12;;;;;;;2.83;0.50;;;16.10;99.90;;;;;;5047671;28;20216;-37
2022/09/16 09:24:02;;;;;;;3.90;0.80;;;16.00;99.90;;;;;;5046267;28;20721;-37
2022/09/16 09:26:51;;;;;;;2.33;0.80;;;16.10;99.90;;;;;;5055415;28;20616;-37
2022/09/16 09:30:04;;;;;;;4.70;0.90;;;16.10;99.90;;;;;;5069601;28;20198;-37
2022/09/16 09:32:50;;;;;;;3.37;0.60;;;16.10;99.90;;;;;;5057209;28;20200;-35
2022/09/16 09:35:49;;;;;;;1.60;0.60;;;16.20;99.90;;;;;;5046300;28;20196;-37
2022/09/16 09:38:34;;;;;;;2.03;0.73;;;16.20;99.90;;;;;;5045170;28;20216;-37
2022/09/16 09:41:17;;;;;;;2.90;0.60;;;16.20;99.90;;;;;;5046699;28;20224;-35
2022/09/16 09:43:55;;;;;;;3.23;0.77;;;16.20;99.90;;;;;;5045286;28;20200;-35
2022/09/16 09:46:52;;;;;;;2.13;0.53;;;16.20;99.90;;;;;;5052617;28;20223;-36
2022/09/16 09:49:56;;;;;;;2.27;0.90;;;16.30;99.90;;;;;;5045812;28;20234;-35
2022/09/16 09:52:43;;;;;;;4.57;0.50;;;16.40;99.90;;;;;;5055315;28;20712;-35
2022/09/16 09:55:17;;;;;;;2.10;0.53;;;16.30;99.90;;;;;;5063057;28;20212;-35
2022/09/16 09:58:12;;;;;;;4.63;0.87;;;16.40;99.90;;;;;;5054026;28;20239;-35
2022/09/16 10:00:40;;;;;;;2.53;0.63;;;16.40;99.90;;;;;;5049077;28;20223;-35
2022/09/16 10:03:13;;;;;;;4.77;0.90;;;16.40;99.90;;;;;;5045712;28;20208;-37
2022/09/16 10:05:44;;;;;;;3.80;0.60;;;16.50;99.90;;;;;;5054025;28;20774;-35
2022/09/16 10:08:24;;;;;;;5.33;0.70;;;16.50;99.90;;;;;;5049697;28;20273;-36
2022/09/16 10:10:59;;;;;;;1.90;0.60;;;16.60;99.90;;;;;;5065579;28;20203;-35
2022/09/16 10:13:30;;;;;;;4.77;0.70;;;16.60;99.90;;;;;;5066153;28;20223;-35
2022/09/16 10:16:14;;;;;;;3.10;0.50;;;16.60;99.90;;;;;;5052450;28;20576;-35
2022/09/16 10:18:43;;;;;;;3.60;0.87;;;16.60;99.90;;;;;;5048916;28;20629;-35
2022/09/16 10:21:14;;;;;;;3.30;0.60;;;16.70;99.90;;;;;;5049812;28;20228;-36
2022/09/16 10:23:56;;;;;;;4.93;0.60;;;16.70;99.90;;;;;;5057601;28;20196;-35
2022/09/16 10:26:27;;;;;;;1.40;0.50;;;16.70;99.90;;;;;;5077657;28;20210;-35
2022/09/16 10:29:00;;;;;;;4.33;0.90;;;16.70;99.90;;;;;;5069095;28;20314;-36
2022/09/16 10:31:39;;;;;;;1.47;0.30;;;16.80;99.90;;;;;;5066822;28;20212;-36
2022/09/16 10:34:32;;;;;;;1.13;0.50;;;16.80;99.90;;;;;;5057232;28;20694;-35
2022/09/16 10:37:12;;;;;;;4.30;0.50;;;16.80;99.90;;;;;;5050533;28;20477;-35
2022/09/16 10:39:46;;;;;;;5.00;0.63;;;16.80;99.90;;;;;;5057438;28;20211;-36
2022/09/16 10:42:24;;;;;;;4.17;0.70;;;16.80;99.90;;;;;;5068818;28;20234;-36
2022/09/16 10:44:57;;;;;;;1.23;0.40;;;16.80;99.90;;;;;;5057431;28;20289;-36
2022/09/16 10:47:35;;;;;;;0.87;0.50;;;16.80;99.90;;;;;;5077455;28;20226;-36
2022/09/16 10:50:09;;;;;;;1.57;0.60;;;16.70;99.90;;;;;;5063620;28;20223;-36
2022/09/16 10:52:45;;;;;;;1.07;0.40;;;16.70;99.90;;;;;;5047700;28;20211;-34
2022/09/16 10:55:20;;;;;;;3.73;0.63;;;16.60;99.90;;;;;;5049679;28;20743;-34
2022/09/16 10:57:50;;;;;;;1.47;0.50;;;16.60;99.90;;;;;;5064817;28;20341;-35
2022/09/16 11:00:22;;;;;;;4.73;0.53;;;16.60;99.90;;;;;;5048327;28;20757;-34
2022/09/16 11:03:09;;;;;;;1.47;0.47;;;16.70;99.90;;;;;;5063050;28;20673;-34
2022/09/16 11:06:05;;;;;;;2.63;0.57;;;16.70;99.90;;;;;;5065887;28;20214;-34
2022/09/16 11:09:01;;;;;;;2.80;0.53;;;16.70;99.90;;;;;;5047297;28;20204;-34
2022/09/16 11:11:48;;;;;;;2.13;0.33;;;16.80;99.90;;;;;;5050839;28;20722;-34
2022/09/16 11:14:36;;;;;;;2.07;0.40;;;16.70;99.90;;;;;;5063740;28;20214;-34
2022/09/16 11:17:14;;;;;;;2.50;0.47;;;16.80;99.90;;;;;;5047614;28;20220;-34
2022/09/16 11:20:09;;;;;;;1.57;0.70;;;16.70;99.90;;;;;;5073289;28;20631;-34
2022/09/16 11:22:54;;;;;;;1.53;0.50;;;16.80;99.90;;;;;;5068116;28;20743;-34
2022/09/16 11:25:33;;;;;;;2.83;0.80;;;16.70;99.90;;;;;;5061916;28;20188;-33
2022/09/16 11:28:32;;;;;;;1.57;0.60;;;16.80;99.90;;;;;;5061595;28;20204;-33
2022/09/16 11:31:23;;;;;;;2.53;0.80;;;16.80;99.90;;;;;;5063717;28;20597;-33
2022/09/16 11:34:30;;;;;;;1.80;0.60;;;16.80;99.90;;;;;;5060313;28;20215;-33
2022/09/16 11:37:14;;;;;;;1.50;0.60;;;16.80;99.90;;;;;;5046948;28;20204;-33
2022/09/16 11:40:18;;;;;;;1.43;0.50;;;16.80;99.90;;;;;;5047776;28;20243;-35
2022/09/16 11:43:39;;;;;;;1.10;0.50;;;16.80;99.90;;;;;;5047339;28;20223;-34
2022/09/16 11:46:22;;;;;;;4.13;0.70;;;16.80;99.90;;;;;;5064966;28;20209;-34
2022/09/16 11:49:03;;;;;;;2.93;0.70;;;16.70;99.90;;;;;;5048643;28;20291;-34
2022/09/16 11:51:47;;;;;;;0.70;0.40;;;16.70;99.90;;;;;;5052772;28;20235;-34
2022/09/16 11:54:27;;;;;;;2.40;0.50;;;16.70;99.90;;;;;;5068296;28;20760;-33
2022/09/16 11:57:19;;;;;;;1.43;0.60;;;16.80;99.90;;;;;;5046416;28;20204;-35
2022/09/16 12:00:08;;;;;;;1.63;0.67;;;16.80;99.90;;;;;;5049918;28;20730;-33
2022/09/16 12:02:41;;;;;;;2.33;0.93;;;16.70;99.90;;;;;;5030350;28;20326;-35
2022/09/16 12:05:28;;;;;;;2.10;0.90;;;16.80;99.90;;;;;;5047735;28;20589;-35
2022/09/16 12:08:21;;;;;;;2.60;0.83;;;16.90;99.90;;;;;;5066248;28;20215;-33
2022/09/16 12:11:11;;;;;;;5.97;0.80;;;16.90;99.90;;;;;;5067419;28;20231;-35
2022/09/16 12:13:45;;;;;;;4.10;1.00;;;16.90;99.90;;;;;;5049079;28;20208;-34
2022/09/16 12:16:21;;;;;;;1.23;0.70;;;17.00;99.90;;;;;;5066427;28;20200;-33
2022/09/16 12:18:56;;;;;;;2.30;0.70;;;17.00;99.90;;;;;;5067276;28;20207;-34
2022/09/16 12:21:49;;;;;;;1.87;0.80;;;16.90;99.90;;;;;;5066494;28;20223;-36
2022/09/16 12:24:42;;;;;;;4.00;0.93;;;16.90;99.90;;;;;;5061079;28;20264;-35
2022/09/16 12:27:34;;;;;;;1.53;0.60;;;17.00;99.90;;;;;;5057453;28;20208;-35
2022/09/16 12:30:15;;;;;;;1.77;0.80;;;17.00;99.90;;;;;;5056333;28;20226;-36
2022/09/16 12:32:50;;;;;;;2.70;0.80;;;17.00;99.90;;;;;;5066612;28;20257;-36
2022/09/16 12:35:36;;;;;;;2.87;0.93;;;16.90;99.90;;;;;;5066962;28;20394;-36
2022/09/16 12:38:06;;;;;;;4.37;1.10;;;16.90;99.90;;;;;;5053325;28;20258;-36
2022/09/16 12:40:51;;;;;;;4.53;0.87;;;16.90;99.90;;;;;;5051792;28;20284;-36
2022/09/16 12:43:50;;;;;;;2.10;0.67;;;16.80;99.90;;;;;;5063077;28;20257;-36
2022/09/16 12:46:22;;;;;;;6.93;1.10;;;16.70;99.90;;;;;;5066864;28;20594;-35
2022/09/16 12:49:02;;;;;;;5.60;0.70;;;16.40;99.90;;;;;;5050803;28;20595;-35
2022/09/16 12:51:48;;;;;;;1.80;0.30;;;16.20;99.90;;;;;;5053983;28;20240;-35
2022/09/16 12:54:44;;;;;;;2.53;0.47;;;16.10;99.90;;;;;;5049562;28;20693;-35
2022/09/16 12:57:31;;;;;;;2.50;0.40;;;15.80;99.90;;;;;;5055964;28;20227;-36
2022/09/16 13:00:25;;;;;;;1.57;0.40;;;15.50;99.90;;;;;;5057722;28;20254;-35
2022/09/16 13:03:07;;;;;;;0.80;0.40;;;15.30;99.90;;;;;;5065388;28;20223;-36
2022/09/16 13:05:37;;;;;;;0.47;0.27;;;15.20;99.90;;;;;;5051796;28;20644;-35
2022/09/16 13:08:18;;;;;;;1.97;0.70;;;15.10;99.90;;;;;;5064411;28;20215;-35
2022/09/16 13:11:17;;;;;;;3.27;0.70;;;15.00;99.90;;;;;;5045404;28;20200;-36
2022/09/16 13:14:04;;;;;;;2.00;0.60;;;15.00;99.90;;;;;;5053424;28;20215;-37
2022/09/16 13:16:35;;;;;;;5.20;0.70;;;15.10;99.90;;;;;;5048856;28;20658;-35
2022/09/16 13:19:28;;;;;;;6.93;0.80;;;15.10;99.90;;;;;;5045870;28;20718;-36
2022/09/16 13:22:01;;;;;;;3.33;0.80;;;15.20;99.90;;;;;;5056335;28;20234;-37
2022/09/16 13:24:45;;;;;;;5.17;0.63;;;15.20;99.90;;;;;;5065553;28;20195;-36
2022/09/16 13:27:27;;;;;;;7.17;1.00;;;15.30;99.90;;;;;;5052212;28;20305;-35
2022/09/16 13:30:07;;;;;;;4.53;0.60;;;15.40;99.90;;;;;;5063684;28;20227;-37
2022/09/16 13:32:42;;;;;;;2.20;0.60;;;15.40;99.90;;;;;;5050283;28;20669;-37
2022/09/16 13:35:18;;;;;;;1.70;0.40;;;15.50;99.90;;;;;;5054561;28;20218;-37
2022/09/16 13:37:51;;;;;;;2.37;0.40;;;15.50;99.90;;;;;;5066417;28;20293;-35